x

Big Carlos Pass, Fl (bgcf1) Weather Station

5:54pm - Sun 24th May 2015 All times are EDT. -4 hours from GMT.

  • Wind
    15mph, 20mph gusts
  • Air Temp 84°f
  • Sea Pressure 1018.5mb
  • Big Carlos Pass, Fl
  • Big Carlos Pass, Fl

More Historic Weather Station data

Upgrade to MSW Pro to gain access to the past 30 days of data for over 8000 Wavebouys and Weather Stations around the globe.

Join Pro

Comparision Forecast

View Surf forecast
   
Sun 05/24 5:54pm 15 20 mph 1018.5mb 84f
5:48pm 13 17 mph 1018.6mb 86f
4:54pm 9 13 mph 1018.9mb 91f
4:48pm 7 10 mph 1018.9mb 91f
3:54pm 9 14 mph 1019.4mb 91f
3:48pm 7 11 mph 1019.4mb 91f
2:54pm 7 15 mph 1020.1mb 91f
2:48pm 7 13 mph 1020.2mb 90f
1:54pm 9 13 mph 1021mb 89f
1:48pm 7 10 mph 1021.1mb 88f
12:54pm 9 15 mph 1021.4mb 88f
12:48pm 10 14 mph 1021.5mb 87f
11:54am 10 15 mph 1021.9mb 86f
11:48am 11 16 mph 1021.9mb 86f
10:54am 11 15 mph 1022.2mb 84f
10:48am 9 16 mph 1022.2mb 84f
9:54am 11 16 mph 1022.2mb 82f
9:48am 10 15 mph 1022.2mb 82f
8:54am 7 10 mph 1022mb 80f
8:48am 8 11 mph 1022mb 80f
7:54am 7 10 mph 1021.6mb 78f
7:48am 7 10 mph 1021.6mb 78f
6:54am 6 8 mph 1021.5mb 76f
6:48am 7 8 mph 1021.3mb 76f
5:54am 7 9 mph 1021mb 77f
5:48am 7 8 mph 1021mb 77f
4:54am 7 9 mph 1021mb 77f
4:48am 6 8 mph 1021mb 77f
3:54am 8 10 mph 1021mb 77f
3:48am 7 10 mph 1021mb 77f
2:54am 7 10 mph 1021.1mb 78f
2:48am 6 11 mph 1021.1mb 78f
1:54am 8 11 mph 1021.2mb 78f
1:48am 8 13 mph 1021.3mb 78f
12:54am 8 13 mph 1021.8mb 79f
12:48am 8 13 mph 1021.9mb 79f
Sat 05/23 11:54pm 8 14 mph 1022.2mb 80f
11:48pm 9 15 mph 1022.2mb 80f
10:54pm 8 11 mph 1022mb 80f
10:48pm 7 10 mph 1021.9mb 80f
9:54pm 8 11 mph 1021.4mb 80f
9:48pm 7 9 mph 1021.3mb 80f
8:54pm 6 9 mph 1020.9mb 81f
8:48pm 6 8 mph 1021mb 81f
7:54pm 6 7 mph 1020.9mb 82f
7:48pm 5 7 mph 1021mb 83f
6:54pm 9 18 mph 1021.7mb 83f
6:48pm 5 8 mph 1021.6mb 84f
2:54pm 9 14 mph 1021.9mb 81f
2:48pm 9 14 mph 1022mb 82f
1:54pm 10 22 mph 1022.2mb 84f
1:48pm 5 13 mph 1022.1mb 86f
12:54pm 5 8 mph 1022.7mb 89f
12:48pm 7 10 mph 1022.7mb 88f
11:54am 7 11 mph 1023.1mb 86f
11:48am 6 10 mph 1023.2mb 86f
10:54am 7 11 mph 1023mb 84f
10:48am 8 11 mph 1023.1mb 83f
9:54am 9 13 mph 1023mb 81f
9:48am 9 13 mph 1023.1mb 81f
8:54am 9 14 mph 1022.6mb 79f
8:48am 9 13 mph 1022.6mb 79f
6:54am 7 11 mph 1021.2mb 75f
6:48am 9 11 mph 1021.2mb 75f
5:54am 8 10 mph 1020.7mb 74f
5:48am 9 10 mph 1020.6mb 74f
4:54am 10 14 mph 1020mb 74f
4:48am 9 13 mph 1020mb 74f
3:54am 9 13 mph 1019.9mb 75f
3:48am 9 13 mph 1019.9mb 75f
2:54am 8 10 mph 1020mb 74f
2:48am 9 13 mph 1020mb 74f
1:54am 9 11 mph 1020.8mb 75f
1:48am 7 8 mph 1020.9mb 76f
Fri 05/22 11:54pm 6 8 mph 1021.4mb 78f
11:48pm 6 7 mph 1021.3mb 78f
10:54pm 6 7 mph 1021.4mb 78f
10:48pm 6 9 mph 1021.3mb 78f
9:54pm 5 7 mph 1020.4mb 76f
9:48pm 7 9 mph 1020.4mb 77f
8:54pm 10 13 mph 1020.5mb 77f
8:48pm 13 16 mph 1020.6mb 78f
7:54pm 7 8 mph 1020.5mb 80f
7:48pm 9 13 mph 1020.4mb 80f
6:54pm 10 15 mph 1020.4mb 80f
6:48pm 13 21 mph 1020.2mb 81f
5:54pm 9 11 mph 1018.9mb 86f
5:48pm 8 10 mph 1018.8mb 86f
4:54pm 15 18 mph 1018.1mb 85f
4:48pm 15 17 mph 1018.3mb 85f
3:54pm 17 20 mph 1018mb 84f
3:48pm 17 18 mph 1018.2mb 84f
2:54pm 16 20 mph 1018.9mb 85f
2:48pm 15 18 mph 1019mb 85f
1:54pm 15 16 mph 1019mb 85f
1:48pm 15 16 mph 1019.1mb 85f
12:54pm 11 14 mph 1019.2mb 85f
12:48pm 11 14 mph 1019.3mb 85f
11:54am 3 7 mph 1019.3mb 87f
11:48am 2 5 mph 1019.2mb 86f
10:54am 3 6 mph 1019.1mb 84f
10:48am 5 8 mph 1019.1mb 84f
9:54am 6 8 mph 1019.2mb 83f
9:48am 5 7 mph 1019.2mb 83f
8:54am 5 7 mph 1018.9mb 81f
8:48am 5 7 mph 1018.9mb 81f
7:54am 5 6 mph 1018.4mb 80f
7:48am 5
mph
1018.4mb 80f
6:54am 6 7 mph 1017.9mb 80f
6:48am 7 8 mph 1017.9mb 80f
5:54am 7 8 mph 1017.1mb 80f
5:48am 7 8 mph 1017.1mb 80f
4:54am 7 8 mph 1017.1mb 80f
4:48am 6 8 mph 1017.1mb 80f
3:54am 6 8 mph 1017mb 81f
3:48am 6 7 mph 1017mb 81f
2:54am 3 5 mph 1017.2mb 81f
2:48am 2 3 mph 1017.2mb 81f
1:54am 5 6 mph 1017.4mb 81f
1:48am 3 7 mph 1017.3mb 81f
12:54am 5 8 mph 1017.7mb 81f
12:48am 5 9 mph 1017.6mb 81f
Thu 05/21 11:54pm 5 7 mph 1017.2mb 81f
11:48pm 6 9 mph 1017.2mb 81f
10:54pm 7 10 mph 1016.9mb 81f
10:48pm 9 14 mph 1016.9mb 81f